NJE128R EDDS-LDSP
Flight info
| Callsign | NJE128R |
|---|---|
| Flight time | 1h 14m |
| Altitude | 35000 |
| Route | ABTAL4B ABTAL L173 RIXED Y161 MAH L173 OTT M867 VAVOR/N0492F450 M867 RADIZ DCT VEKEN DCT GIRDA DCT SAL |
| Aircraft | C750/M-SBDE3FGHRWXY/S |
Departure
| Time | 2026-05-04 19:28 |
|---|---|
| Airport | Stuttgart Airport (EDDS) |
Arrival
| Time | 2026-05-04 20:43 |
|---|---|
| Airport | Split Saint Jerome Airport (LDSP) |
| Time | Latitude | Longitude | Altitude | Speed | Heading |
|---|---|---|---|---|---|
| 2026-05-04 19:03 | 48.69177 | 9.21219 | 1264 ft | 0 kts | 165° |
| 2026-05-04 19:23 | 48.69175 | 9.21220 | 1264 ft | 1 kts | 165° |
| 2026-05-04 19:23 | 48.69161 | 9.21226 | 1266 ft | 2 kts | 165° |
| 2026-05-04 19:24 | 48.69137 | 9.21236 | 1265 ft | 5 kts | 154° |
| 2026-05-04 19:24 | 48.69112 | 9.21299 | 1267 ft | 9 kts | 116° |
| 2026-05-04 19:24 | 48.69103 | 9.21422 | 1258 ft | 14 kts | 80° |
| 2026-05-04 19:24 | 48.69135 | 9.21584 | 1263 ft | 18 kts | 73° |
| 2026-05-04 19:25 | 48.69172 | 9.21779 | 1249 ft | 19 kts | 74° |
| 2026-05-04 19:25 | 48.69210 | 9.21976 | 1248 ft | 21 kts | 74° |
| 2026-05-04 19:25 | 48.69254 | 9.22212 | 1245 ft | 22 kts | 74° |
| 2026-05-04 19:25 | 48.69292 | 9.22413 | 1234 ft | 22 kts | 73° |
| 2026-05-04 19:26 | 48.69334 | 9.22629 | 1230 ft | 18 kts | 73° |
| 2026-05-04 19:26 | 48.69368 | 9.22804 | 1226 ft | 19 kts | 73° |
| 2026-05-04 19:26 | 48.69404 | 9.23012 | 1222 ft | 21 kts | 76° |
| 2026-05-04 19:26 | 48.69360 | 9.23149 | 1218 ft | 13 kts | 152° |
| 2026-05-04 19:27 | 48.69300 | 9.23182 | 1214 ft | 0 kts | 164° |
| 2026-05-04 19:27 | 48.69277 | 9.23192 | 1211 ft | 8 kts | 163° |
| 2026-05-04 19:27 | 48.69215 | 9.23219 | 1209 ft | 10 kts | 168° |
| 2026-05-04 19:27 | 48.69172 | 9.23172 | 1210 ft | 0 kts | 251° |
| 2026-05-04 19:28 | 48.69171 | 9.23168 | 1210 ft | 4 kts | 251° |
| 2026-05-04 19:28 | 48.69079 | 9.22689 | 1220 ft | 104 kts | 254° |
| 2026-05-04 19:28 | 48.68820 | 9.21319 | 1515 ft | 147 kts | 255° |
| 2026-05-04 19:28 | 48.68520 | 9.19773 | 2237 ft | 159 kts | 257° |
| 2026-05-04 19:29 | 48.68224 | 9.18105 | 2958 ft | 169 kts | 258° |
| 2026-05-04 19:29 | 48.67953 | 9.16346 | 3764 ft | 173 kts | 259° |
| 2026-05-04 19:29 | 48.67690 | 9.14575 | 4680 ft | 172 kts | 257° |
| 2026-05-04 19:29 | 48.67428 | 9.12803 | 5489 ft | 175 kts | 256° |
| 2026-05-04 19:30 | 48.67153 | 9.10969 | 6188 ft | 182 kts | 255° |
| 2026-05-04 19:30 | 48.66802 | 9.09096 | 6228 ft | 191 kts | 240° |
| 2026-05-04 19:30 | 48.65750 | 9.07868 | 6062 ft | 202 kts | 193° |
| 2026-05-04 19:30 | 48.64330 | 9.07952 | 6043 ft | 208 kts | 169° |
| 2026-05-04 19:31 | 48.63079 | 9.08820 | 6690 ft | 191 kts | 144° |
| 2026-05-04 19:31 | 48.62200 | 9.10283 | 7534 ft | 196 kts | 126° |
| 2026-05-04 19:31 | 48.61475 | 9.12177 | 7964 ft | 221 kts | 120° |
| 2026-05-04 19:31 | 48.61272 | 9.14583 | 8567 ft | 238 kts | 89° |
| 2026-05-04 19:32 | 48.61448 | 9.17052 | 9485 ft | 237 kts | 88° |
| 2026-05-04 19:32 | 48.61575 | 9.19570 | 10155 ft | 243 kts | 91° |
| 2026-05-04 19:32 | 48.61672 | 9.22132 | 11060 ft | 243 kts | 91° |
| 2026-05-04 19:32 | 48.61781 | 9.24703 | 11924 ft | 248 kts | 90° |
| 2026-05-04 19:33 | 48.62183 | 9.27289 | 12659 ft | 260 kts | 71° |
| 2026-05-04 19:33 | 48.62927 | 9.29781 | 13624 ft | 261 kts | 69° |
| 2026-05-04 19:33 | 48.63653 | 9.32279 | 14391 ft | 265 kts | 70° |
| 2026-05-04 19:33 | 48.64383 | 9.34899 | 15199 ft | 269 kts | 70° |
| 2026-05-04 19:34 | 48.65113 | 9.37505 | 15987 ft | 273 kts | 70° |
| 2026-05-04 19:34 | 48.65861 | 9.40150 | 16811 ft | 277 kts | 70° |
| 2026-05-04 19:34 | 48.66624 | 9.42851 | 17648 ft | 281 kts | 70° |
| 2026-05-04 19:34 | 48.67397 | 9.45597 | 18475 ft | 286 kts | 69° |
| 2026-05-04 19:35 | 48.68182 | 9.48387 | 19222 ft | 291 kts | 69° |
| 2026-05-04 19:35 | 48.68980 | 9.51227 | 19990 ft | 296 kts | 69° |
| 2026-05-04 19:35 | 48.69791 | 9.54120 | 20755 ft | 301 kts | 69° |
| 2026-05-04 19:35 | 48.70615 | 9.57064 | 21528 ft | 306 kts | 69° |
| 2026-05-04 19:36 | 48.71453 | 9.60056 | 22307 ft | 311 kts | 69° |
| 2026-05-04 19:36 | 48.72304 | 9.63103 | 23070 ft | 316 kts | 69° |
| 2026-05-04 19:36 | 48.73162 | 9.66177 | 23857 ft | 319 kts | 69° |
| 2026-05-04 19:36 | 48.74029 | 9.69289 | 24537 ft | 323 kts | 69° |
| 2026-05-04 19:37 | 48.74906 | 9.72440 | 25212 ft | 326 kts | 69° |
| 2026-05-04 19:37 | 48.75791 | 9.75624 | 25886 ft | 330 kts | 69° |
| 2026-05-04 19:37 | 48.76686 | 9.78844 | 26567 ft | 333 kts | 70° |
| 2026-05-04 19:37 | 48.77588 | 9.82099 | 27237 ft | 337 kts | 70° |
| 2026-05-04 19:38 | 48.78499 | 9.85392 | 27899 ft | 341 kts | 70° |
| 2026-05-04 19:38 | 48.79419 | 9.88720 | 28599 ft | 344 kts | 70° |
| 2026-05-04 19:38 | 48.80361 | 9.92135 | 29312 ft | 348 kts | 70° |
| 2026-05-04 19:38 | 48.81300 | 9.95547 | 29994 ft | 352 kts | 71° |
| 2026-05-04 19:39 | 48.82248 | 9.98992 | 30593 ft | 356 kts | 71° |
| 2026-05-04 19:39 | 48.83205 | 10.02470 | 31205 ft | 359 kts | 70° |
| 2026-05-04 19:39 | 48.84157 | 10.05939 | 31788 ft | 362 kts | 70° |
| 2026-05-04 19:39 | 48.85065 | 10.09511 | 32334 ft | 364 kts | 78° |
| 2026-05-04 19:40 | 48.85251 | 10.13298 | 32869 ft | 358 kts | 98° |
| 2026-05-04 19:40 | 48.84985 | 10.17093 | 33538 ft | 358 kts | 101° |
| 2026-05-04 19:40 | 48.84658 | 10.20807 | 34062 ft | 362 kts | 102° |
| 2026-05-04 19:40 | 48.84332 | 10.24614 | 34534 ft | 366 kts | 101° |
| 2026-05-04 19:41 | 48.84032 | 10.28468 | 34981 ft | 371 kts | 101° |
| 2026-05-04 19:41 | 48.83716 | 10.32453 | 34978 ft | 389 kts | 101° |
| 2026-05-04 19:41 | 48.83347 | 10.36609 | 34977 ft | 405 kts | 104° |
| 2026-05-04 19:41 | 48.82582 | 10.40787 | 34983 ft | 417 kts | 115° |
| 2026-05-04 19:42 | 48.81281 | 10.44771 | 34978 ft | 427 kts | 125° |
| 2026-05-04 19:42 | 48.77297 | 10.51689 | 34984 ft | 446 kts | 141° |
| 2026-05-04 19:43 | 48.72587 | 10.58132 | 34973 ft | 468 kts | 138° |
| 2026-05-04 19:43 | 48.70351 | 10.61791 | 34977 ft | 479 kts | 134° |
| 2026-05-04 19:43 | 48.68147 | 10.65632 | 34971 ft | 487 kts | 134° |
| 2026-05-04 19:44 | 48.63364 | 10.73063 | 34964 ft | 498 kts | 138° |
| 2026-05-04 19:44 | 48.58559 | 10.80745 | 34952 ft | 507 kts | 135° |
| 2026-05-04 19:45 | 48.53705 | 10.88517 | 34934 ft | 510 kts | 136° |
| 2026-05-04 19:45 | 48.49548 | 10.97263 | 34936 ft | 517 kts | 123° |
| 2026-05-04 19:46 | 48.45885 | 11.06617 | 34945 ft | 518 kts | 124° |
| 2026-05-04 19:46 | 48.42050 | 11.15814 | 34947 ft | 519 kts | 124° |
| 2026-05-04 19:47 | 48.38310 | 11.25126 | 34947 ft | 520 kts | 124° |
| 2026-05-04 19:47 | 48.34484 | 11.34361 | 34946 ft | 521 kts | 124° |
| 2026-05-04 19:48 | 48.30698 | 11.43638 | 34934 ft | 520 kts | 123° |
| 2026-05-04 19:48 | 48.26910 | 11.52784 | 34933 ft | 519 kts | 124° |
| 2026-05-04 19:49 | 48.23112 | 11.61976 | 34932 ft | 517 kts | 124° |
| 2026-05-04 19:49 | 48.19314 | 11.71113 | 34930 ft | 516 kts | 124° |
| 2026-05-04 19:50 | 48.15512 | 11.80235 | 34931 ft | 516 kts | 124° |
| 2026-05-04 19:50 | 48.11681 | 11.89331 | 34917 ft | 516 kts | 126° |
| 2026-05-04 19:51 | 48.06893 | 11.97195 | 34922 ft | 510 kts | 141° |
| 2026-05-04 19:51 | 48.01556 | 12.04167 | 34916 ft | 510 kts | 140° |
| 2026-05-04 19:52 | 47.96411 | 12.11463 | 34917 ft | 510 kts | 140° |
| 2026-05-04 19:52 | 47.91072 | 12.18423 | 34919 ft | 509 kts | 142° |
| 2026-05-04 19:53 | 47.85644 | 12.25217 | 34918 ft | 510 kts | 142° |
| 2026-05-04 19:53 | 47.80223 | 12.32035 | 34922 ft | 510 kts | 142° |
| 2026-05-04 19:54 | 47.74787 | 12.38817 | 34912 ft | 510 kts | 142° |
| 2026-05-04 19:54 | 47.69349 | 12.45595 | 34919 ft | 510 kts | 142° |
| 2026-05-04 19:55 | 47.63879 | 12.52301 | 34914 ft | 509 kts | 143° |
| 2026-05-04 19:55 | 47.57893 | 12.57773 | 34926 ft | 505 kts | 154° |
| 2026-05-04 19:56 | 47.51679 | 12.62642 | 34930 ft | 506 kts | 153° |
| 2026-05-04 19:56 | 47.45526 | 12.67703 | 34944 ft | 507 kts | 154° |
| 2026-05-04 19:57 | 47.39307 | 12.72614 | 34952 ft | 507 kts | 154° |
| 2026-05-04 19:57 | 47.33120 | 12.77619 | 34988 ft | 507 kts | 154° |
| 2026-05-04 19:58 | 47.26911 | 12.82540 | 34974 ft | 508 kts | 154° |
| 2026-05-04 19:58 | 47.20688 | 12.87514 | 34998 ft | 509 kts | 154° |
| 2026-05-04 19:59 | 47.14441 | 12.92462 | 35007 ft | 510 kts | 154° |
| 2026-05-04 19:59 | 47.08202 | 12.97406 | 35014 ft | 509 kts | 154° |
| 2026-05-04 20:00 | 47.01960 | 13.02335 | 35024 ft | 511 kts | 154° |
| 2026-05-04 20:00 | 46.95691 | 13.07269 | 35045 ft | 512 kts | 154° |
| 2026-05-04 20:01 | 46.90480 | 13.11367 | 35050 ft | 511 kts | 154° |
| 2026-05-04 20:01 | 46.84205 | 13.16280 | 35050 ft | 512 kts | 154° |
| 2026-05-04 20:02 | 46.77909 | 13.21203 | 35055 ft | 514 kts | 154° |
| 2026-05-04 20:02 | 46.71590 | 13.26128 | 35049 ft | 515 kts | 154° |
| 2026-05-04 20:03 | 46.65263 | 13.31045 | 35055 ft | 515 kts | 154° |
| 2026-05-04 20:03 | 46.58936 | 13.35951 | 35064 ft | 515 kts | 154° |
| 2026-05-04 20:04 | 46.52535 | 13.40650 | 35058 ft | 515 kts | 156° |
| 2026-05-04 20:04 | 46.46086 | 13.45212 | 35061 ft | 516 kts | 156° |
| 2026-05-04 20:05 | 46.39669 | 13.49739 | 35067 ft | 516 kts | 156° |
| 2026-05-04 20:05 | 46.33200 | 13.54281 | 35065 ft | 518 kts | 156° |
| 2026-05-04 20:06 | 46.26700 | 13.58845 | 35067 ft | 520 kts | 156° |
| 2026-05-04 20:06 | 46.20180 | 13.63402 | 35069 ft | 521 kts | 156° |
| 2026-05-04 20:07 | 46.13656 | 13.67955 | 35067 ft | 520 kts | 156° |
| 2026-05-04 20:07 | 46.07124 | 13.72498 | 35076 ft | 523 kts | 156° |
| 2026-05-04 20:08 | 46.00560 | 13.77053 | 35083 ft | 525 kts | 156° |
| 2026-05-04 20:08 | 45.93974 | 13.81611 | 35087 ft | 526 kts | 156° |
| 2026-05-04 20:09 | 45.87381 | 13.86161 | 35086 ft | 526 kts | 156° |
| 2026-05-04 20:09 | 45.80784 | 13.90703 | 35082 ft | 526 kts | 156° |
| 2026-05-04 20:10 | 45.74197 | 13.95225 | 35093 ft | 524 kts | 157° |
| 2026-05-04 20:10 | 45.67620 | 13.99729 | 35093 ft | 524 kts | 157° |
| 2026-05-04 20:11 | 45.61031 | 14.04229 | 35091 ft | 526 kts | 157° |
| 2026-05-04 20:11 | 45.54426 | 14.08728 | 35096 ft | 526 kts | 157° |
| 2026-05-04 20:12 | 45.47808 | 14.13225 | 35097 ft | 527 kts | 157° |
| 2026-05-04 20:12 | 45.41200 | 14.17784 | 35103 ft | 528 kts | 156° |
| 2026-05-04 20:13 | 45.34593 | 14.22364 | 35092 ft | 528 kts | 156° |
| 2026-05-04 20:13 | 45.27977 | 14.26899 | 35097 ft | 528 kts | 156° |
| 2026-05-04 20:14 | 45.21360 | 14.31458 | 35102 ft | 529 kts | 156° |
| 2026-05-04 20:14 | 45.14721 | 14.35993 | 35101 ft | 531 kts | 156° |
| 2026-05-04 20:15 | 45.08077 | 14.40540 | 35102 ft | 530 kts | 156° |
| 2026-05-04 20:15 | 45.01474 | 14.45032 | 35094 ft | 531 kts | 156° |
| 2026-05-04 20:16 | 44.94813 | 14.49563 | 35092 ft | 532 kts | 157° |
| 2026-05-04 20:16 | 44.88142 | 14.54081 | 35093 ft | 532 kts | 157° |
| 2026-05-04 20:17 | 44.81466 | 14.58596 | 35093 ft | 532 kts | 157° |
| 2026-05-04 20:17 | 44.74783 | 14.63101 | 35090 ft | 533 kts | 157° |
| 2026-05-04 20:18 | 44.68076 | 14.67612 | 34577 ft | 536 kts | 157° |
| 2026-05-04 20:18 | 44.64741 | 14.69853 | 33912 ft | 524 kts | 157° |
| 2026-05-04 20:18 | 44.61507 | 14.72025 | 33273 ft | 507 kts | 157° |
| 2026-05-04 20:18 | 44.58367 | 14.74126 | 32683 ft | 493 kts | 157° |
| 2026-05-04 20:19 | 44.55308 | 14.76167 | 32104 ft | 481 kts | 156° |
| 2026-05-04 20:19 | 44.52326 | 14.78160 | 31536 ft | 469 kts | 156° |
| 2026-05-04 20:19 | 44.49414 | 14.80105 | 30977 ft | 459 kts | 156° |
| 2026-05-04 20:19 | 44.46565 | 14.82002 | 30436 ft | 449 kts | 156° |
| 2026-05-04 20:20 | 44.43776 | 14.83859 | 29872 ft | 439 kts | 156° |
| 2026-05-04 20:20 | 44.41048 | 14.85673 | 29345 ft | 429 kts | 156° |
| 2026-05-04 20:20 | 44.38383 | 14.87445 | 28837 ft | 420 kts | 156° |
| 2026-05-04 20:20 | 44.35770 | 14.89178 | 28342 ft | 412 kts | 156° |
| 2026-05-04 20:21 | 44.33207 | 14.90878 | 27853 ft | 404 kts | 156° |
| 2026-05-04 20:21 | 44.30685 | 14.92548 | 27369 ft | 398 kts | 156° |
| 2026-05-04 20:21 | 44.25714 | 14.95836 | 26429 ft | 399 kts | 156° |
| 2026-05-04 20:22 | 44.23179 | 14.97512 | 25947 ft | 407 kts | 156° |
| 2026-05-04 20:22 | 44.20605 | 14.99212 | 25457 ft | 412 kts | 156° |
| 2026-05-04 20:22 | 44.17994 | 15.00934 | 24974 ft | 417 kts | 155° |
| 2026-05-04 20:22 | 44.15362 | 15.02667 | 24473 ft | 420 kts | 155° |
| 2026-05-04 20:23 | 44.12710 | 15.04412 | 23968 ft | 422 kts | 155° |
| 2026-05-04 20:23 | 44.10048 | 15.06161 | 23424 ft | 422 kts | 155° |
| 2026-05-04 20:23 | 44.07431 | 15.07880 | 22916 ft | 408 kts | 155° |
| 2026-05-04 20:23 | 44.04886 | 15.09550 | 22429 ft | 401 kts | 155° |
| 2026-05-04 20:24 | 44.02381 | 15.11190 | 21951 ft | 396 kts | 155° |
| 2026-05-04 20:24 | 43.99896 | 15.12809 | 21480 ft | 393 kts | 156° |
| 2026-05-04 20:24 | 43.97433 | 15.14410 | 21009 ft | 390 kts | 156° |
| 2026-05-04 20:24 | 43.94983 | 15.15994 | 20547 ft | 387 kts | 156° |
| 2026-05-04 20:25 | 43.92549 | 15.17567 | 20080 ft | 384 kts | 156° |
| 2026-05-04 20:25 | 43.90361 | 15.19669 | 19606 ft | 385 kts | 140° |
| 2026-05-04 20:25 | 43.88528 | 15.22357 | 19186 ft | 383 kts | 133° |
| 2026-05-04 20:25 | 43.86786 | 15.25127 | 18733 ft | 380 kts | 134° |
| 2026-05-04 20:26 | 43.84928 | 15.27708 | 18259 ft | 376 kts | 140° |
| 2026-05-04 20:26 | 43.82910 | 15.29977 | 17790 ft | 371 kts | 144° |
| 2026-05-04 20:26 | 43.80919 | 15.32131 | 17354 ft | 366 kts | 142° |
| 2026-05-04 20:26 | 43.79006 | 15.34433 | 16914 ft | 362 kts | 139° |
| 2026-05-04 20:27 | 43.77149 | 15.36767 | 16483 ft | 359 kts | 140° |
| 2026-05-04 20:27 | 43.75271 | 15.39009 | 16054 ft | 355 kts | 141° |
| 2026-05-04 20:27 | 43.73383 | 15.41201 | 15629 ft | 353 kts | 141° |
| 2026-05-04 20:27 | 43.71523 | 15.43407 | 15208 ft | 352 kts | 141° |
| 2026-05-04 20:28 | 43.69678 | 15.45627 | 14783 ft | 352 kts | 141° |
| 2026-05-04 20:28 | 43.67808 | 15.47854 | 14361 ft | 358 kts | 141° |
| 2026-05-04 20:28 | 43.65896 | 15.50109 | 13927 ft | 364 kts | 141° |
| 2026-05-04 20:28 | 43.63960 | 15.52402 | 13460 ft | 368 kts | 141° |
| 2026-05-04 20:29 | 43.62015 | 15.54712 | 13017 ft | 370 kts | 141° |
| 2026-05-04 20:29 | 43.60057 | 15.57031 | 12572 ft | 372 kts | 141° |
| 2026-05-04 20:29 | 43.58091 | 15.59353 | 12126 ft | 372 kts | 141° |
| 2026-05-04 20:29 | 43.56124 | 15.61676 | 11679 ft | 373 kts | 141° |
| 2026-05-04 20:30 | 43.54192 | 15.63960 | 11236 ft | 357 kts | 141° |
| 2026-05-04 20:30 | 43.52349 | 15.66137 | 10815 ft | 342 kts | 141° |
| 2026-05-04 20:30 | 43.50572 | 15.68228 | 10414 ft | 330 kts | 141° |
| 2026-05-04 20:30 | 43.48852 | 15.70250 | 10029 ft | 321 kts | 141° |
| 2026-05-04 20:31 | 43.47177 | 15.72222 | 9629 ft | 313 kts | 141° |
| 2026-05-04 20:31 | 43.45539 | 15.74149 | 9256 ft | 306 kts | 141° |
| 2026-05-04 20:31 | 43.43933 | 15.76035 | 8900 ft | 300 kts | 141° |
| 2026-05-04 20:31 | 43.42329 | 15.77795 | 8533 ft | 290 kts | 148° |
| 2026-05-04 20:32 | 43.40469 | 15.78698 | 8165 ft | 281 kts | 172° |
| 2026-05-04 20:32 | 43.38535 | 15.78557 | 7591 ft | 280 kts | 194° |
| 2026-05-04 20:32 | 43.36835 | 15.77421 | 6931 ft | 268 kts | 216° |
| 2026-05-04 20:32 | 43.35354 | 15.75990 | 6237 ft | 253 kts | 202° |
| 2026-05-04 20:33 | 43.33669 | 15.75837 | 5450 ft | 242 kts | 167° |
| 2026-05-04 20:33 | 43.32188 | 15.76856 | 4789 ft | 239 kts | 147° |
| 2026-05-04 20:33 | 43.31015 | 15.78449 | 4138 ft | 238 kts | 128° |
| 2026-05-04 20:33 | 43.30318 | 15.80485 | 3488 ft | 236 kts | 107° |
| 2026-05-04 20:34 | 43.30204 | 15.82708 | 2981 ft | 229 kts | 85° |
| 2026-05-04 20:34 | 43.30464 | 15.84735 | 2993 ft | 207 kts | 81° |
| 2026-05-04 20:34 | 43.30674 | 15.86700 | 2998 ft | 209 kts | 85° |
| 2026-05-04 20:34 | 43.30843 | 15.88691 | 3000 ft | 211 kts | 84° |
| 2026-05-04 20:35 | 43.31022 | 15.90729 | 2883 ft | 219 kts | 84° |
| 2026-05-04 20:35 | 43.31459 | 15.92741 | 2717 ft | 226 kts | 57° |
| 2026-05-04 20:35 | 43.32495 | 15.94269 | 2798 ft | 219 kts | 46° |
| 2026-05-04 20:35 | 43.33671 | 15.95599 | 2787 ft | 220 kts | 34° |
| 2026-05-04 20:36 | 43.34962 | 15.96727 | 2808 ft | 220 kts | 34° |
| 2026-05-04 20:36 | 43.36156 | 15.98036 | 2796 ft | 220 kts | 46° |
| 2026-05-04 20:36 | 43.37118 | 15.99662 | 2800 ft | 216 kts | 53° |
| 2026-05-04 20:36 | 43.38009 | 16.01273 | 2792 ft | 207 kts | 53° |
| 2026-05-04 20:37 | 43.38868 | 16.02817 | 2790 ft | 200 kts | 53° |
| 2026-05-04 20:37 | 43.39699 | 16.04309 | 2791 ft | 193 kts | 53° |
| 2026-05-04 20:37 | 43.40507 | 16.05760 | 2791 ft | 189 kts | 53° |
| 2026-05-04 20:37 | 43.41298 | 16.07181 | 2790 ft | 186 kts | 53° |
| 2026-05-04 20:38 | 43.42075 | 16.08579 | 2793 ft | 182 kts | 53° |
| 2026-05-04 20:38 | 43.42840 | 16.09953 | 2794 ft | 180 kts | 53° |
| 2026-05-04 20:38 | 43.43596 | 16.11314 | 2797 ft | 178 kts | 54° |
| 2026-05-04 20:38 | 43.44347 | 16.12664 | 2801 ft | 177 kts | 54° |
| 2026-05-04 20:39 | 43.45105 | 16.14014 | 2693 ft | 182 kts | 53° |
| 2026-05-04 20:39 | 43.45890 | 16.15428 | 2443 ft | 186 kts | 54° |
| 2026-05-04 20:39 | 43.46621 | 16.16738 | 2195 ft | 157 kts | 54° |
| 2026-05-04 20:39 | 43.47241 | 16.17847 | 1993 ft | 137 kts | 55° |
| 2026-05-04 20:40 | 43.47808 | 16.18865 | 1829 ft | 132 kts | 54° |
| 2026-05-04 20:40 | 43.48365 | 16.19866 | 1654 ft | 132 kts | 54° |
| 2026-05-04 20:40 | 43.48922 | 16.20869 | 1479 ft | 132 kts | 53° |
| 2026-05-04 20:40 | 43.49481 | 16.21866 | 1303 ft | 132 kts | 52° |
| 2026-05-04 20:41 | 43.50038 | 16.22870 | 1130 ft | 133 kts | 51° |
| 2026-05-04 20:41 | 43.50604 | 16.23862 | 987 ft | 130 kts | 50° |
| 2026-05-04 20:41 | 43.51171 | 16.24810 | 851 ft | 128 kts | 51° |
| 2026-05-04 20:41 | 43.51719 | 16.25786 | 669 ft | 130 kts | 53° |
| 2026-05-04 20:42 | 43.52257 | 16.26795 | 454 ft | 132 kts | 54° |
| 2026-05-04 20:42 | 43.52807 | 16.27812 | 236 ft | 132 kts | 54° |
| 2026-05-04 20:42 | 43.53340 | 16.28776 | 84 ft | 120 kts | 53° |
| 2026-05-04 20:42 | 43.53787 | 16.29600 | 76 ft | 91 kts | 53° |
| 2026-05-04 20:43 | 43.54071 | 16.30112 | 61 ft | 41 kts | 50° |
| 2026-05-04 20:43 | 43.54130 | 16.30241 | 56 ft | 6 kts | 90° |
| 2026-05-04 20:43 | 43.54150 | 16.30248 | 57 ft | 4 kts | 305° |
| 2026-05-04 20:43 | 43.54128 | 16.30207 | 54 ft | 5 kts | 223° |
| 2026-05-04 20:44 | 43.54098 | 16.30162 | 61 ft | 8 kts | 228° |
| 2026-05-04 20:44 | 43.54054 | 16.30121 | 59 ft | 8 kts | 200° |
| 2026-05-04 20:44 | 43.54009 | 16.30102 | 61 ft | 3 kts | 196° |
| 2026-05-04 20:44 | 43.54004 | 16.30100 | 61 ft | 0 kts | 196° |
| 2026-05-04 20:45 | 43.53985 | 16.30092 | 62 ft | 4 kts | 197° |
| 2026-05-04 20:45 | 43.53945 | 16.30077 | 58 ft | 6 kts | 195° |
| 2026-05-04 20:45 | 43.53917 | 16.30060 | 65 ft | 6 kts | 218° |
| 2026-05-04 20:45 | 43.53873 | 16.29996 | 65 ft | 13 kts | 228° |
| 2026-05-04 20:46 | 43.53818 | 16.29898 | 65 ft | 12 kts | 233° |
| 2026-05-04 20:46 | 43.53760 | 16.29792 | 60 ft | 11 kts | 233° |
| 2026-05-04 20:46 | 43.53731 | 16.29742 | 65 ft | 7 kts | 233° |
| 2026-05-04 20:46 | 43.53684 | 16.29657 | 65 ft | 13 kts | 233° |
| 2026-05-04 20:47 | 43.53633 | 16.29562 | 65 ft | 9 kts | 234° |
| 2026-05-04 20:47 | 43.53596 | 16.29540 | 65 ft | 0 kts | 154° |
| 2026-05-04 20:47 | 43.53590 | 16.29556 | 61 ft | 2 kts | 105° |
| 2026-05-04 20:47 | 43.53588 | 16.29567 | 65 ft | 1 kts | 106° |
| 2026-05-04 20:48 | 43.53588 | 16.29568 | 65 ft | 0 kts | 106° |
| 2026-05-04 21:25 | 43.53593 | 16.29585 | 59 ft | 3 kts | 50° |
| 2026-05-04 21:25 | 43.53599 | 16.29589 | 62 ft | 1 kts | 24° |
| 2026-05-04 21:26 | 43.53616 | 16.29589 | 65 ft | 3 kts | 349° |
| 2026-05-04 21:26 | 43.53631 | 16.29581 | 65 ft | 2 kts | 340° |
| 2026-05-04 21:26 | 43.53643 | 16.29577 | 65 ft | 1 kts | 349° |
| 2026-05-04 21:26 | 43.53645 | 16.29577 | 65 ft | 0 kts | 351° |
| 2026-05-04 21:30 | 43.53660 | 16.29574 | 64 ft | 5 kts | 353° |
| 2026-05-04 21:30 | 43.53683 | 16.29568 | 65 ft | 1 kts | 340° |